createdAt,value
2019-03-10T00:00:28.383Z,999.46
2019-03-10T00:01:28.359Z,999.44
2019-03-10T00:02:28.358Z,999.57
2019-03-10T00:03:28.340Z,999.48
2019-03-10T00:04:28.359Z,999.53
2019-03-10T00:05:28.331Z,999.59
2019-03-10T00:06:28.302Z,999.53
2019-03-10T00:07:28.300Z,999.48
2019-03-10T00:08:28.318Z,999.58
2019-03-10T00:09:28.270Z,999.51
2019-03-10T00:10:28.262Z,999.46
2019-03-10T00:11:28.262Z,999.46
2019-03-10T00:12:28.241Z,999.54
2019-03-10T00:13:28.224Z,999.53
2019-03-10T00:14:28.247Z,999.46
2019-03-10T00:15:28.207Z,999.47
2019-03-10T00:16:28.194Z,999.41
2019-03-10T00:17:28.199Z,999.45
2019-03-10T00:18:28.174Z,999.41
2019-03-10T00:19:28.163Z,999.36
2019-03-10T00:20:28.194Z,999.36
2019-03-10T00:21:28.139Z,999.37
2019-03-10T00:22:28.134Z,999.31
2019-03-10T00:23:28.138Z,999.26
2019-03-10T00:24:28.117Z,999.31
2019-03-10T00:25:28.102Z,999.25
2019-03-10T00:26:28.106Z,999.32
2019-03-10T00:27:28.089Z,999.28
2019-03-10T00:28:28.078Z,999.31
2019-03-10T00:29:28.080Z,999.27
2019-03-10T00:30:28.042Z,999.30
2019-03-10T00:31:28.029Z,999.28
2019-03-10T00:32:28.017Z,999.29
2019-03-10T00:33:28.017Z,999.28
2019-03-10T00:34:28.013Z,999.33
2019-03-10T00:35:27.997Z,999.31
2019-03-10T00:36:27.973Z,999.38
2019-03-10T00:37:27.957Z,999.31
2019-03-10T00:38:27.958Z,999.29
2019-03-10T00:39:27.941Z,999.29
2019-03-10T00:40:27.948Z,999.25
2019-03-10T00:41:27.926Z,999.23
2019-03-10T00:42:27.915Z,999.25
2019-03-10T00:43:27.909Z,999.25
2019-03-10T00:44:27.908Z,999.16
2019-03-10T00:45:27.881Z,999.14
2019-03-10T00:46:27.869Z,999.13
2019-03-10T00:47:27.862Z,999.12
2019-03-10T00:48:27.898Z,999.13
2019-03-10T00:49:27.829Z,999.06
2019-03-10T00:50:27.830Z,999.06
2019-03-10T00:51:27.813Z,999.06
2019-03-10T00:52:27.804Z,999.12
2019-03-10T00:53:27.782Z,999.08
2019-03-10T00:54:27.773Z,999.03
2019-03-10T00:55:27.767Z,998.98
2019-03-10T00:56:27.761Z,999.05
2019-03-10T00:57:27.777Z,999.14
2019-03-10T00:58:27.746Z,999.11
2019-03-10T00:59:27.717Z,999.10
2019-03-10T01:00:27.705Z,999.10
2019-03-10T01:01:27.697Z,998.97
2019-03-10T01:02:27.685Z,998.96
2019-03-10T01:03:27.698Z,999.01
2019-03-10T01:04:27.665Z,998.97
2019-03-10T01:05:27.658Z,998.99
2019-03-10T01:06:27.641Z,998.97
2019-03-10T01:07:27.636Z,998.94
2019-03-10T01:08:27.622Z,998.90
2019-03-10T01:09:27.614Z,998.87
2019-03-10T01:10:27.605Z,998.86
2019-03-10T01:11:27.586Z,998.73
2019-03-10T01:12:27.570Z,998.76
2019-03-10T01:13:27.564Z,998.67
2019-03-10T01:14:27.574Z,998.69
2019-03-10T01:15:27.559Z,998.67
2019-03-10T01:16:27.526Z,998.63
2019-03-10T01:17:27.513Z,998.62
2019-03-10T01:18:27.508Z,998.57
2019-03-10T01:19:27.498Z,998.56
2019-03-10T01:20:27.510Z,998.54
2019-03-10T01:21:27.470Z,998.55
2019-03-10T01:22:27.458Z,998.48
2019-03-10T01:23:27.449Z,998.53
2019-03-10T01:24:27.465Z,998.50
2019-03-10T01:25:28.616Z,998.51
2019-03-10T01:26:27.433Z,998.52
2019-03-10T01:27:27.426Z,998.42
2019-03-10T01:28:27.397Z,998.49
2019-03-10T01:29:27.405Z,998.57
2019-03-10T01:30:27.377Z,998.50
2019-03-10T01:31:27.362Z,998.47
2019-03-10T01:32:27.369Z,998.42
2019-03-10T01:33:27.341Z,998.51
2019-03-10T01:34:27.336Z,998.42
2019-03-10T01:35:27.326Z,998.42
2019-03-10T01:36:27.305Z,998.43
2019-03-10T01:37:27.298Z,998.32
2019-03-10T01:38:27.310Z,998.27
2019-03-10T01:39:27.270Z,998.27
2019-03-10T01:40:27.257Z,998.27
2019-03-10T01:41:27.266Z,998.19
2019-03-10T01:42:27.254Z,998.23
2019-03-10T01:43:27.241Z,998.22
2019-03-10T01:44:27.214Z,998.23
2019-03-10T01:45:27.209Z,998.17
2019-03-10T01:46:27.194Z,998.18
2019-03-10T01:47:27.190Z,998.13
2019-03-10T01:48:27.182Z,998.10
2019-03-10T01:49:27.210Z,998.09
2019-03-10T01:50:27.154Z,998.07
2019-03-10T01:51:27.142Z,998.11
2019-03-10T01:52:27.137Z,998.11
2019-03-10T01:53:27.126Z,998.07
2019-03-10T01:54:27.106Z,998.03
2019-03-10T01:55:27.110Z,998.08
2019-03-10T01:56:27.081Z,998.08
2019-03-10T01:57:27.077Z,998.05
2019-03-10T01:58:28.883Z,998.08
2019-03-10T01:59:27.074Z,998.05
2019-03-10T02:00:27.043Z,998.07
2019-03-10T02:01:27.033Z,998.04
2019-03-10T02:02:27.018Z,998.05
2019-03-10T02:03:27.028Z,997.99
2019-03-10T02:04:26.994Z,997.98
2019-03-10T02:05:26.981Z,997.83
2019-03-10T02:06:27.009Z,997.80
2019-03-10T02:07:26.967Z,997.81
2019-03-10T02:08:26.969Z,997.88
2019-03-10T02:09:26.941Z,997.73
2019-03-10T02:10:26.929Z,997.76
2019-03-10T02:11:26.920Z,997.69
2019-03-10T02:12:26.922Z,997.72
2019-03-10T02:13:26.893Z,997.77
2019-03-10T02:14:26.901Z,997.64
2019-03-10T02:15:26.872Z,997.65
2019-03-10T02:16:26.862Z,997.62
2019-03-10T02:17:26.852Z,997.54
2019-03-10T02:18:26.849Z,997.57
2019-03-10T02:19:26.841Z,997.42
2019-03-10T02:20:26.828Z,997.41
2019-03-10T02:21:26.805Z,997.41
2019-03-10T02:22:26.798Z,997.42
2019-03-10T02:23:26.784Z,997.41
2019-03-10T02:24:26.785Z,997.36
2019-03-10T02:25:26.790Z,997.32
2019-03-10T02:26:26.759Z,997.31
2019-03-10T02:27:26.741Z,997.24
2019-03-10T02:28:26.728Z,997.18
2019-03-10T02:29:26.721Z,997.20
2019-03-10T02:30:26.739Z,997.19
2019-03-10T02:31:26.718Z,997.18
2019-03-10T02:32:26.723Z,997.10
2019-03-10T02:33:26.698Z,997.14
2019-03-10T02:34:26.670Z,997.15
2019-03-10T02:35:26.664Z,997.14
2019-03-10T02:36:26.637Z,997.14
2019-03-10T02:37:26.634Z,997.15
2019-03-10T02:38:26.640Z,997.12
2019-03-10T02:39:26.610Z,997.03
2019-03-10T02:40:26.608Z,997.01
2019-03-10T02:41:26.605Z,996.94
2019-03-10T02:42:26.595Z,996.92
2019-03-10T02:43:26.561Z,996.96
2019-03-10T02:44:26.561Z,996.90
2019-03-10T02:45:26.543Z,996.92
2019-03-10T02:46:26.534Z,996.87
2019-03-10T02:47:26.520Z,996.89
2019-03-10T02:48:26.538Z,996.86
2019-03-10T02:49:26.559Z,996.86
2019-03-10T02:50:26.485Z,996.83
2019-03-10T02:51:26.478Z,996.80
2019-03-10T02:52:26.465Z,996.79
2019-03-10T02:53:26.449Z,996.74
2019-03-10T02:54:26.464Z,996.76
2019-03-10T02:55:26.430Z,996.73
2019-03-10T02:56:26.417Z,996.70
2019-03-10T02:57:26.418Z,996.67
2019-03-10T02:58:26.408Z,996.65
2019-03-10T02:59:26.394Z,996.67
2019-03-10T03:00:26.398Z,996.66
2019-03-10T03:01:26.368Z,996.67
2019-03-10T03:02:26.353Z,996.64
2019-03-10T03:03:26.379Z,996.61
2019-03-10T03:04:26.351Z,996.61
2019-03-10T03:05:26.313Z,996.53
2019-03-10T03:06:26.369Z,996.48
2019-03-10T03:07:26.293Z,996.46
2019-03-10T03:08:26.289Z,996.45
2019-03-10T03:09:26.302Z,996.40
2019-03-10T03:10:26.276Z,996.33
2019-03-10T03:11:26.281Z,996.40
2019-03-10T03:12:26.270Z,996.29
2019-03-10T03:13:26.232Z,996.33
2019-03-10T03:14:26.222Z,996.25
2019-03-10T03:15:26.210Z,996.25
2019-03-10T03:16:26.197Z,996.20
2019-03-10T03:17:26.190Z,996.19
2019-03-10T03:18:26.175Z,996.22
2019-03-10T03:19:26.157Z,996.17
2019-03-10T03:20:26.150Z,996.15
2019-03-10T03:21:26.140Z,996.15
2019-03-10T03:22:26.154Z,996.13
2019-03-10T03:23:26.124Z,996.09
2019-03-10T03:24:26.113Z,996.11
2019-03-10T03:25:26.106Z,996.06
2019-03-10T03:26:26.084Z,996.10
2019-03-10T03:27:26.069Z,996.06
2019-03-10T03:28:26.082Z,996.09
2019-03-10T03:29:26.063Z,996.04
2019-03-10T03:30:26.078Z,996.01
2019-03-10T03:31:26.122Z,995.99
2019-03-10T03:32:26.046Z,996.01
2019-03-10T03:33:26.021Z,995.95
2019-03-10T03:34:26.040Z,996.00
2019-03-10T03:35:25.986Z,995.97
2019-03-10T03:36:25.987Z,996.00
2019-03-10T03:37:26.002Z,995.94
2019-03-10T03:38:26.008Z,995.95
2019-03-10T03:39:25.959Z,995.97
2019-03-10T03:40:25.927Z,995.95
2019-03-10T03:41:25.934Z,995.85
2019-03-10T03:42:25.961Z,995.83
2019-03-10T03:43:25.908Z,995.80
2019-03-10T03:44:25.905Z,995.79
2019-03-10T03:45:25.870Z,995.85
2019-03-10T03:46:25.858Z,995.82
2019-03-10T03:47:25.846Z,995.81
2019-03-10T03:48:25.907Z,995.77
2019-03-10T03:49:25.835Z,995.73
2019-03-10T03:50:25.829Z,995.65
2019-03-10T03:51:25.829Z,995.67
2019-03-10T03:52:25.794Z,995.67
2019-03-10T03:53:25.781Z,995.61
2019-03-10T03:54:25.812Z,995.56
2019-03-10T03:55:25.757Z,995.54
2019-03-10T03:56:25.757Z,995.49
2019-03-10T03:57:25.741Z,995.55
2019-03-10T03:58:25.729Z,995.50
2019-03-10T03:59:25.736Z,995.51
2019-03-10T04:00:25.731Z,995.48
2019-03-10T04:01:25.707Z,995.50
2019-03-10T04:02:25.696Z,995.46
2019-03-10T04:03:25.667Z,995.43
2019-03-10T04:04:25.660Z,995.35
2019-03-10T04:05:25.649Z,995.37
2019-03-10T04:06:25.665Z,995.35
2019-03-10T04:07:25.626Z,995.42
2019-03-10T04:08:25.641Z,995.36
2019-03-10T04:09:25.615Z,995.34
2019-03-10T04:10:25.590Z,995.28
2019-03-10T04:11:25.579Z,995.26
2019-03-10T04:12:25.592Z,995.21
2019-03-10T04:13:25.580Z,995.22
2019-03-10T04:14:25.561Z,995.23
2019-03-10T04:15:25.541Z,995.19
2019-03-10T04:16:25.525Z,995.19
2019-03-10T04:17:25.512Z,995.20
2019-03-10T04:18:25.544Z,995.14
2019-03-10T04:19:25.515Z,995.11
2019-03-10T04:20:25.481Z,995.13
2019-03-10T04:21:25.472Z,995.08
2019-03-10T04:22:25.463Z,995.05
2019-03-10T04:23:25.447Z,995.05
2019-03-10T04:24:25.493Z,995.04
2019-03-10T04:25:25.432Z,995.00
2019-03-10T04:26:25.416Z,994.99
2019-03-10T04:27:25.405Z,994.96
2019-03-10T04:28:25.391Z,994.95
2019-03-10T04:29:25.380Z,995.01
2019-03-10T04:30:25.412Z,994.99
2019-03-10T04:31:25.360Z,994.99
2019-03-10T04:32:25.365Z,994.99
2019-03-10T04:33:25.339Z,994.93
2019-03-10T04:34:25.328Z,994.98
2019-03-10T04:35:25.313Z,994.96
2019-03-10T04:36:25.324Z,994.88
2019-03-10T04:37:25.292Z,994.94
2019-03-10T04:38:25.316Z,994.85
2019-03-10T04:39:25.267Z,994.82
2019-03-10T04:40:25.255Z,994.83
2019-03-10T04:41:25.248Z,994.84
2019-03-10T04:42:25.259Z,994.75
2019-03-10T04:43:25.240Z,994.76
2019-03-10T04:44:25.216Z,994.77
2019-03-10T04:45:25.203Z,994.76
2019-03-10T04:46:25.191Z,994.69
2019-03-10T04:47:25.181Z,994.67
2019-03-10T04:48:25.183Z,994.63
2019-03-10T04:49:25.167Z,994.60
2019-03-10T04:50:25.147Z,994.59
2019-03-10T04:51:25.137Z,994.60
2019-03-10T04:52:25.123Z,994.57
2019-03-10T04:53:25.116Z,994.56
2019-03-10T04:54:25.140Z,994.50
2019-03-10T04:55:25.091Z,994.48
2019-03-10T04:56:25.083Z,994.48
2019-03-10T04:57:25.071Z,994.46
2019-03-10T04:58:25.055Z,994.43
2019-03-10T04:59:25.070Z,994.43
2019-03-10T05:00:25.051Z,994.43
2019-03-10T05:01:25.029Z,994.35
2019-03-10T05:02:25.013Z,994.34
2019-03-10T05:03:25.003Z,994.34
2019-03-10T05:04:24.992Z,994.29
2019-03-10T05:05:25.002Z,994.30
2019-03-10T05:06:24.990Z,994.29
2019-03-10T05:07:24.958Z,994.29
2019-03-10T05:08:24.950Z,994.21
2019-03-10T05:09:24.936Z,994.20
2019-03-10T05:10:25.275Z,994.19
2019-03-10T05:11:24.919Z,994.18
2019-03-10T05:12:24.931Z,994.13
2019-03-10T05:13:24.891Z,994.18
2019-03-10T05:14:24.907Z,994.13
2019-03-10T05:15:24.866Z,994.08
2019-03-10T05:16:24.882Z,994.06
2019-03-10T05:17:24.847Z,994.03
2019-03-10T05:18:24.869Z,994.05
2019-03-10T05:19:24.827Z,994.06
2019-03-10T05:20:24.815Z,994.04
2019-03-10T05:21:24.803Z,994.00
2019-03-10T05:22:24.792Z,993.99
2019-03-10T05:23:24.779Z,993.98
2019-03-10T05:24:24.815Z,993.94
2019-03-10T05:25:24.759Z,993.92
2019-03-10T05:26:24.747Z,993.92
2019-03-10T05:27:24.736Z,993.92
2019-03-10T05:28:24.723Z,993.89
2019-03-10T05:29:24.715Z,993.86
2019-03-10T05:30:24.735Z,993.85
2019-03-10T05:31:24.693Z,993.81
2019-03-10T05:32:26.577Z,993.74
2019-03-10T05:33:24.672Z,993.67
2019-03-10T05:34:24.659Z,993.60
2019-03-10T05:35:24.666Z,993.58
2019-03-10T05:36:24.696Z,993.54
2019-03-10T05:37:24.630Z,993.47
2019-03-10T05:38:24.615Z,993.47
2019-03-10T05:39:24.603Z,993.38
2019-03-10T05:40:24.594Z,993.48
2019-03-10T05:41:24.603Z,993.44
2019-03-10T05:42:24.570Z,993.42
2019-03-10T05:43:24.559Z,993.38
2019-03-10T05:44:24.547Z,993.36
2019-03-10T05:45:24.535Z,993.30
2019-03-10T05:46:24.527Z,993.32
2019-03-10T05:47:24.547Z,993.31
2019-03-10T05:48:24.501Z,993.30
2019-03-10T05:49:24.490Z,993.28
2019-03-10T05:50:24.479Z,993.29
2019-03-10T05:51:24.471Z,993.24
2019-03-10T05:52:24.458Z,993.19
2019-03-10T05:53:24.479Z,993.18
2019-03-10T05:54:24.437Z,993.14
2019-03-10T05:55:24.427Z,993.15
2019-03-10T05:56:24.419Z,993.09
2019-03-10T05:57:24.401Z,993.08
2019-03-10T05:58:24.393Z,993.05
2019-03-10T05:59:24.433Z,993.00
2019-03-10T06:00:24.381Z,992.95
2019-03-10T06:01:24.364Z,992.97
2019-03-10T06:02:24.351Z,992.96
2019-03-10T06:03:24.337Z,992.96
2019-03-10T06:04:24.326Z,992.95
2019-03-10T06:05:25.839Z,992.91
2019-03-10T06:06:24.302Z,992.92
2019-03-10T06:07:24.293Z,992.93
2019-03-10T06:08:24.282Z,992.89
2019-03-10T06:09:24.273Z,992.87
2019-03-10T06:10:24.257Z,992.75
2019-03-10T06:11:24.301Z,992.74
2019-03-10T06:12:24.242Z,992.69
2019-03-10T06:13:24.225Z,992.61
2019-03-10T06:14:24.214Z,992.60
2019-03-10T06:15:24.203Z,992.62
2019-03-10T06:16:24.202Z,992.60
2019-03-10T06:17:24.222Z,992.61
2019-03-10T06:18:24.183Z,992.55
2019-03-10T06:19:24.158Z,992.47
2019-03-10T06:20:24.162Z,992.42
2019-03-10T06:21:24.139Z,992.37
2019-03-10T06:22:24.126Z,992.34
2019-03-10T06:23:24.130Z,992.34
2019-03-10T06:24:24.113Z,992.34
2019-03-10T06:25:24.095Z,992.37
2019-03-10T06:26:24.082Z,992.36
2019-03-10T06:27:24.074Z,992.40
2019-03-10T06:28:24.061Z,992.31
2019-03-10T06:29:24.093Z,992.29
2019-03-10T06:30:24.038Z,992.24
2019-03-10T06:31:24.026Z,992.19
2019-03-10T06:32:24.018Z,992.10
2019-03-10T06:33:24.029Z,992.08
2019-03-10T06:34:23.993Z,992.06
2019-03-10T06:35:24.033Z,992.01
2019-03-10T06:36:23.971Z,991.96
2019-03-10T06:37:23.965Z,991.96
2019-03-10T06:38:23.953Z,991.98
2019-03-10T06:39:23.942Z,991.99
2019-03-10T06:40:31.695Z,992.01
2019-03-10T06:41:24.943Z,991.96
2019-03-10T06:42:23.903Z,991.95
2019-03-10T06:43:23.898Z,991.95
2019-03-10T06:44:23.886Z,991.85
2019-03-10T06:45:23.885Z,991.80
2019-03-10T06:46:23.863Z,991.77
2019-03-10T06:47:23.885Z,991.75
2019-03-10T06:48:23.838Z,991.72
2019-03-10T06:49:23.826Z,991.66
2019-03-10T06:50:23.816Z,991.66
2019-03-10T06:51:23.807Z,991.66
2019-03-10T06:52:23.805Z,991.67
2019-03-10T06:53:23.819Z,991.63
2019-03-10T06:54:23.774Z,991.61
2019-03-10T06:55:23.763Z,991.58
2019-03-10T06:56:23.753Z,991.57
2019-03-10T06:57:23.755Z,991.54
2019-03-10T06:58:23.729Z,991.51
2019-03-10T06:59:23.739Z,991.49
2019-03-10T07:00:23.706Z,991.47
2019-03-10T07:01:23.706Z,991.49
2019-03-10T07:02:23.686Z,991.47
2019-03-10T07:03:23.681Z,991.44
2019-03-10T07:04:23.668Z,991.43
2019-03-10T07:05:23.694Z,991.43
2019-03-10T07:06:23.637Z,991.39
2019-03-10T07:07:23.631Z,991.32
2019-03-10T07:08:23.636Z,991.28
2019-03-10T07:09:23.607Z,991.20
2019-03-10T07:10:23.593Z,991.16
2019-03-10T07:11:23.595Z,991.10
2019-03-10T07:12:23.573Z,991.03
2019-03-10T07:13:23.563Z,990.95
2019-03-10T07:14:23.563Z,990.98
2019-03-10T07:15:23.537Z,991.01
2019-03-10T07:16:23.528Z,991.05
2019-03-10T07:17:23.562Z,991.08
2019-03-10T07:18:23.506Z,991.14
2019-03-10T07:19:23.503Z,991.15
2019-03-10T07:20:23.486Z,991.17
2019-03-10T07:21:23.475Z,991.09
2019-03-10T07:22:23.491Z,991.10
2019-03-10T07:23:23.463Z,991.05
2019-03-10T07:24:23.439Z,990.99
2019-03-10T07:25:23.430Z,990.96
2019-03-10T07:26:23.417Z,990.88
2019-03-10T07:27:23.405Z,990.86
2019-03-10T07:28:23.414Z,990.77
2019-03-10T07:29:23.399Z,990.74
2019-03-10T07:30:23.373Z,990.64
2019-03-10T07:31:23.366Z,990.61
2019-03-10T07:32:23.349Z,990.56
2019-03-10T07:33:23.338Z,990.57
2019-03-10T07:34:23.347Z,990.52
2019-03-10T07:35:23.344Z,990.46
2019-03-10T07:36:23.305Z,990.44
2019-03-10T07:37:23.298Z,990.46
2019-03-10T07:38:23.289Z,990.45
2019-03-10T07:39:23.273Z,990.38
2019-03-10T07:40:23.273Z,990.36
2019-03-10T07:41:23.309Z,990.29
2019-03-10T07:42:23.238Z,990.25
2019-03-10T07:43:23.233Z,990.21
2019-03-10T07:44:23.218Z,990.23
2019-03-10T07:45:23.205Z,990.20
2019-03-10T07:46:23.226Z,990.19
2019-03-10T07:47:23.217Z,990.22
2019-03-10T07:48:23.175Z,990.15
2019-03-10T07:49:23.203Z,990.06
2019-03-10T07:50:23.153Z,990.05
2019-03-10T07:51:23.150Z,990.10
2019-03-10T07:52:23.130Z,990.04
2019-03-10T07:53:23.157Z,990.00
2019-03-10T07:54:23.106Z,989.91
2019-03-10T07:55:23.150Z,989.92
2019-03-10T07:56:23.087Z,989.90
2019-03-10T07:57:23.094Z,989.87
2019-03-10T07:58:23.063Z,989.82
2019-03-10T07:59:23.085Z,989.75
2019-03-10T08:00:23.041Z,989.72
2019-03-10T08:01:23.031Z,989.74
2019-03-10T08:02:23.038Z,989.71
2019-03-10T08:03:23.027Z,989.66
2019-03-10T08:04:22.997Z,989.61
2019-03-10T08:05:23.002Z,989.55
2019-03-10T08:06:23.009Z,989.54
2019-03-10T08:07:22.994Z,989.56
2019-03-10T08:08:22.962Z,989.54
2019-03-10T08:09:22.953Z,989.54
2019-03-10T08:10:22.929Z,989.49
2019-03-10T08:11:22.921Z,989.43
2019-03-10T08:12:22.907Z,989.39
2019-03-10T08:13:22.922Z,989.37
2019-03-10T08:14:22.897Z,989.28
2019-03-10T08:15:22.885Z,989.26
2019-03-10T08:16:22.864Z,989.31
2019-03-10T08:17:24.576Z,989.26
2019-03-10T08:18:22.844Z,989.31
2019-03-10T08:19:22.846Z,989.35
2019-03-10T08:20:22.822Z,989.37
2019-03-10T08:21:22.809Z,989.41
2019-03-10T08:22:22.797Z,989.39
2019-03-10T08:23:22.789Z,989.32
2019-03-10T08:24:22.779Z,989.30
2019-03-10T08:25:22.781Z,989.31
2019-03-10T08:26:22.771Z,989.26
2019-03-10T08:27:22.741Z,989.20
2019-03-10T08:28:22.730Z,989.12
2019-03-10T08:29:22.717Z,989.09
2019-03-10T08:30:22.705Z,989.06
2019-03-10T08:31:22.715Z,989.09
2019-03-10T08:32:22.701Z,989.04
2019-03-10T08:33:22.674Z,989.06
2019-03-10T08:34:22.668Z,989.00
2019-03-10T08:35:22.653Z,988.97
2019-03-10T08:36:22.642Z,988.99
2019-03-10T08:37:22.641Z,988.97
2019-03-10T08:38:22.625Z,988.96
2019-03-10T08:39:22.610Z,988.91
2019-03-10T08:40:22.624Z,988.86
2019-03-10T08:41:22.606Z,988.76
2019-03-10T08:42:22.573Z,988.78
2019-03-10T08:43:22.561Z,988.80
2019-03-10T08:44:22.557Z,988.80
2019-03-10T08:45:22.546Z,988.79
2019-03-10T08:46:22.533Z,988.78
2019-03-10T08:47:22.533Z,988.83
2019-03-10T08:48:22.509Z,988.80
2019-03-10T08:49:22.497Z,988.85
2019-03-10T08:50:22.488Z,988.84
2019-03-10T08:51:22.473Z,988.76
2019-03-10T08:52:22.465Z,988.68
2019-03-10T08:53:22.461Z,988.73
2019-03-10T08:54:22.441Z,988.75
2019-03-10T08:55:22.479Z,988.77
2019-03-10T08:56:22.440Z,988.71
2019-03-10T08:57:22.417Z,988.59
2019-03-10T08:58:22.405Z,988.57
2019-03-10T08:59:22.386Z,988.43
2019-03-10T09:00:22.377Z,988.33
2019-03-10T09:01:22.373Z,988.32
2019-03-10T09:02:22.365Z,988.39
2019-03-10T09:03:22.363Z,988.34
2019-03-10T09:04:22.331Z,988.37
2019-03-10T09:05:22.317Z,988.25
2019-03-10T09:06:22.305Z,988.21
2019-03-10T09:07:22.293Z,988.19
2019-03-10T09:08:22.294Z,988.12
2019-03-10T09:09:22.285Z,988.08
2019-03-10T09:10:22.261Z,988.08
2019-03-10T09:11:22.250Z,988.02
2019-03-10T09:12:22.237Z,987.95
2019-03-10T09:13:22.230Z,987.94
2019-03-10T09:14:22.237Z,987.92
2019-03-10T09:15:22.231Z,987.87
2019-03-10T09:16:22.197Z,987.86
2019-03-10T09:17:22.245Z,987.81
2019-03-10T09:18:22.174Z,987.79
2019-03-10T09:19:22.161Z,987.79
2019-03-10T09:20:22.166Z,987.78
2019-03-10T09:21:22.157Z,987.73
2019-03-10T09:22:22.130Z,987.65
2019-03-10T09:23:22.117Z,987.65
2019-03-10T09:24:22.106Z,987.64
2019-03-10T09:25:22.093Z,987.67
2019-03-10T09:26:22.096Z,987.65
2019-03-10T09:27:22.106Z,987.61
2019-03-10T09:28:22.060Z,987.55
2019-03-10T09:29:22.049Z,987.54
2019-03-10T09:30:22.038Z,987.47
2019-03-10T09:31:22.026Z,987.43
2019-03-10T09:32:22.026Z,987.41
2019-03-10T09:33:22.053Z,987.40
2019-03-10T09:34:21.993Z,987.35
2019-03-10T09:35:21.984Z,987.35
2019-03-10T09:36:21.970Z,987.36
2019-03-10T09:37:21.974Z,987.34
2019-03-10T09:38:21.954Z,987.31
2019-03-10T09:39:21.952Z,987.30
2019-03-10T09:40:21.926Z,987.27
2019-03-10T09:41:21.914Z,987.28
2019-03-10T09:42:21.917Z,987.22
2019-03-10T09:43:21.910Z,987.17
2019-03-10T09:44:21.884Z,987.16
2019-03-10T09:45:22.786Z,987.16
2019-03-10T09:46:21.858Z,987.13
2019-03-10T09:47:21.850Z,987.16
2019-03-10T09:48:21.854Z,987.15
2019-03-10T09:49:21.826Z,987.15
2019-03-10T09:50:21.815Z,987.13
2019-03-10T09:51:21.866Z,987.09
2019-03-10T09:52:21.809Z,987.09
2019-03-10T09:53:21.790Z,987.11
2019-03-10T09:54:21.781Z,987.05
2019-03-10T09:55:21.771Z,987.01
2019-03-10T09:56:21.748Z,986.95
2019-03-10T09:57:21.745Z,986.92
2019-03-10T09:58:21.724Z,986.93
2019-03-10T09:59:21.721Z,986.94
2019-03-10T10:00:21.930Z,986.93
2019-03-10T10:01:21.700Z,986.87
2019-03-10T10:02:21.813Z,986.81
2019-03-10T10:03:21.685Z,986.80
2019-03-10T10:04:21.658Z,986.78
2019-03-10T10:05:21.645Z,986.78
2019-03-10T10:06:21.653Z,986.72
2019-03-10T10:07:21.626Z,986.69
2019-03-10T10:08:21.633Z,986.69
2019-03-10T10:09:21.606Z,986.63
2019-03-10T10:10:21.594Z,986.64
2019-03-10T10:11:21.609Z,986.60
2019-03-10T10:12:21.581Z,986.56
2019-03-10T10:13:21.558Z,986.49
2019-03-10T10:14:21.561Z,986.45
2019-03-10T10:15:21.540Z,986.44
2019-03-10T10:16:21.522Z,986.46
2019-03-10T10:17:21.514Z,986.39
2019-03-10T10:18:21.506Z,986.32
2019-03-10T10:19:21.498Z,986.31
2019-03-10T10:20:21.477Z,986.26
2019-03-10T10:21:21.474Z,986.26
2019-03-10T10:22:21.474Z,986.22
2019-03-10T10:23:21.454Z,986.22
2019-03-10T10:24:21.469Z,986.13
2019-03-10T10:25:21.422Z,986.15
2019-03-10T10:26:21.422Z,986.15
2019-03-10T10:27:21.404Z,986.09
2019-03-10T10:28:21.394Z,986.15
2019-03-10T10:29:21.378Z,986.10
2019-03-10T10:30:21.422Z,986.13
2019-03-10T10:31:21.358Z,986.03
2019-03-10T10:32:21.345Z,986.04
2019-03-10T10:33:21.339Z,986.05
2019-03-10T10:34:21.320Z,986.07
2019-03-10T10:35:21.329Z,986.05
2019-03-10T10:36:21.314Z,986.10
2019-03-10T10:37:21.292Z,986.07
2019-03-10T10:38:21.280Z,986.07
2019-03-10T10:39:21.266Z,986.04
2019-03-10T10:40:21.258Z,986.04
2019-03-10T10:41:21.270Z,986.06
2019-03-10T10:42:21.238Z,986.00
2019-03-10T10:43:21.256Z,985.97
2019-03-10T10:44:21.214Z,985.96
2019-03-10T10:45:21.206Z,985.93
2019-03-10T10:46:21.190Z,985.99
2019-03-10T10:47:21.202Z,986.00
2019-03-10T10:48:21.168Z,986.02
2019-03-10T10:49:21.178Z,985.98
2019-03-10T10:50:21.155Z,985.94
2019-03-10T10:51:21.165Z,985.91
2019-03-10T10:52:21.129Z,985.90
2019-03-10T10:53:21.626Z,985.93
2019-03-10T10:54:21.106Z,985.90
2019-03-10T10:55:21.113Z,985.86
2019-03-10T10:56:21.084Z,985.81
2019-03-10T10:57:21.110Z,985.73
2019-03-10T10:58:21.103Z,985.66
2019-03-10T10:59:21.058Z,985.61
2019-03-10T11:00:21.034Z,985.64
2019-03-10T11:01:21.038Z,985.62
2019-03-10T11:02:21.013Z,985.72
2019-03-10T11:03:21.028Z,985.71
2019-03-10T11:04:21.006Z,985.76
2019-03-10T11:05:20.982Z,985.71
2019-03-10T11:06:20.972Z,985.71
2019-03-10T11:07:20.974Z,985.66
2019-03-10T11:08:20.946Z,985.59
2019-03-10T11:09:20.950Z,985.59
2019-03-10T11:10:20.926Z,985.59
2019-03-10T11:11:20.914Z,985.61
2019-03-10T11:12:20.922Z,985.64
2019-03-10T11:13:20.890Z,985.59
2019-03-10T11:14:20.893Z,985.55
2019-03-10T11:15:20.878Z,985.53
2019-03-10T11:16:20.861Z,985.52
2019-03-10T11:17:20.846Z,985.54
2019-03-10T11:18:20.838Z,985.50
2019-03-10T11:19:20.825Z,985.47
2019-03-10T11:20:20.829Z,985.41
2019-03-10T11:21:20.810Z,985.48
2019-03-10T11:22:20.794Z,985.47
2019-03-10T11:23:20.782Z,985.52
2019-03-10T11:24:20.766Z,985.47
2019-03-10T11:25:20.758Z,985.45
2019-03-10T11:26:20.762Z,985.40
2019-03-10T11:27:20.745Z,985.35
2019-03-10T11:28:20.727Z,985.38
2019-03-10T11:29:20.709Z,985.25
2019-03-10T11:30:20.698Z,985.18
2019-03-10T11:31:20.690Z,985.27
2019-03-10T11:32:20.706Z,985.15
2019-03-10T11:33:20.677Z,985.09
2019-03-10T11:34:20.654Z,985.10
2019-03-10T11:35:20.646Z,985.09
2019-03-10T11:36:20.642Z,985.09
2019-03-10T11:37:20.657Z,985.00
2019-03-10T11:38:20.615Z,984.97
2019-03-10T11:39:20.618Z,984.97
2019-03-10T11:40:20.586Z,985.07
2019-03-10T11:41:20.582Z,985.10
2019-03-10T11:42:20.582Z,985.19
2019-03-10T11:43:22.707Z,985.17
2019-03-10T11:44:20.546Z,984.94
2019-03-10T11:45:20.554Z,984.89
2019-03-10T11:46:20.522Z,984.89
2019-03-10T11:47:20.510Z,985.04
2019-03-10T11:48:20.498Z,984.93
2019-03-10T11:49:20.502Z,984.85
2019-03-10T11:50:20.483Z,984.89
2019-03-10T11:51:20.492Z,984.84
2019-03-10T11:52:20.454Z,984.83
2019-03-10T11:53:20.450Z,984.88
2019-03-10T11:54:20.439Z,984.86
2019-03-10T11:55:20.535Z,984.80
2019-03-10T11:56:20.410Z,984.76
2019-03-10T11:57:20.413Z,984.78
2019-03-10T11:58:20.402Z,984.69
2019-03-10T11:59:20.379Z,984.59
2019-03-10T12:00:20.366Z,984.61
2019-03-10T12:01:20.359Z,984.58
2019-03-10T12:02:20.341Z,984.56
2019-03-10T12:03:20.349Z,984.53
2019-03-10T12:04:20.333Z,984.63
2019-03-10T12:05:20.381Z,984.55
2019-03-10T12:06:20.296Z,984.52
2019-03-10T12:07:20.288Z,984.52
2019-03-10T12:08:20.276Z,984.42
2019-03-10T12:09:20.282Z,984.40
2019-03-10T12:10:21.621Z,984.39
2019-03-10T12:11:20.248Z,984.36
2019-03-10T12:12:20.232Z,984.33
2019-03-10T12:13:20.223Z,984.32
2019-03-10T12:14:20.237Z,984.24
2019-03-10T12:15:20.224Z,984.23
2019-03-10T12:16:20.185Z,984.26
2019-03-10T12:17:20.177Z,984.20
2019-03-10T12:18:20.183Z,984.19
2019-03-10T12:19:20.164Z,984.16
2019-03-10T12:20:20.149Z,984.20
2019-03-10T12:21:20.156Z,984.16
2019-03-10T12:22:20.123Z,984.10
2019-03-10T12:23:20.114Z,984.10
2019-03-10T12:24:20.107Z,984.08
2019-03-10T12:25:20.086Z,984.04
2019-03-10T12:26:20.081Z,984.00
2019-03-10T12:27:20.075Z,983.95
2019-03-10T12:28:20.056Z,983.94